Time;durP1;ratioP1;P1;durP2;ratioP2;P2;SDS_P1;SDS_P2;PMS_P1;PMS_P2;Temp;Humidity;BMP_temperature;BMP_pressure;BME280_temperature;BME280_humidity;BME280_pressure;Samples;Min_cycle;Max_cycle;Signal;HPM_P1;HPM_P2
2023/06/14 00:02:08;;;;;;;20.77;16.88;;;;;;;;;;6214172;28;20066;-79
2023/06/14 00:05:11;;;;;;;21.38;15.95;;;;;;;;;;6213303;28;20050;-80
2023/06/14 00:08:14;;;;;;;22.25;16.98;;;;;;;;;;6217304;28;20407;-79
2023/06/14 00:11:17;;;;;;;21.67;17.33;;;;;;;;;;6216996;28;20049;-80
2023/06/14 00:14:19;;;;;;;21.20;17.33;;;;;;;;;;6217017;28;20061;-81
2023/06/14 00:17:24;;;;;;;20.88;16.00;;;;;;;;;;6217206;28;20100;-79
2023/06/14 00:20:26;;;;;;;22.73;17.85;;;;;;;;;;6217489;28;20081;-79
2023/06/14 00:23:28;;;;;;;22.92;17.48;;;;;;;;;;6217065;28;20053;-79
2023/06/14 00:26:31;;;;;;;23.58;16.73;;;;;;;;;;6215045;28;20341;-80
2023/06/14 00:29:33;;;;;;;25.95;17.85;;;;;;;;;;6218081;28;20057;-80
2023/06/14 00:32:35;;;;;;;22.70;18.75;;;;;;;;;;6221476;28;20120;-80
2023/06/14 00:35:37;;;;;;;22.40;18.13;;;;;;;;;;6217874;28;20054;-80
2023/06/14 00:38:39;;;;;;;23.73;18.90;;;;;;;;;;6219040;28;20245;-81
2023/06/14 00:41:42;;;;;;;24.25;18.25;;;;;;;;;;6219666;28;20329;-80
2023/06/14 00:44:44;;;;;;;24.50;18.25;;;;;;;;;;6215546;28;20050;-80
2023/06/14 00:47:47;;;;;;;26.17;19.70;;;;;;;;;;6217866;28;20061;-80
2023/06/14 00:50:50;;;;;;;35.55;19.42;;;;;;;;;;6218924;28;20065;-81
2023/06/14 00:53:52;;;;;;;26.02;19.10;;;;;;;;;;6216592;28;20058;-80
2023/06/14 00:56:55;;;;;;;30.73;21.45;;;;;;;;;;6213449;28;20353;-81
2023/06/14 00:59:57;;;;;;;28.40;20.45;;;;;;;;;;6221809;28;20054;-81
2023/06/14 01:02:58;;;;;;;33.65;22.25;;;;;;;;;;6218800;28;20045;-82
2023/06/14 01:06:05;;;;;;;33.35;22.70;;;;;;;;;;6219926;28;20054;-81
2023/06/14 01:09:12;;;;;;;39.13;23.23;;;;;;;;;;6216769;28;20360;-81
2023/06/14 01:12:20;;;;;;;30.38;22.10;;;;;;;;;;6215566;28;20065;-82
2023/06/14 01:15:22;;;;;;;37.42;22.98;;;;;;;;;;6222435;28;20073;-81
2023/06/14 01:18:25;;;;;;;37.08;22.92;;;;;;;;;;6216245;28;20046;-81
2023/06/14 01:21:28;;;;;;;40.65;24.55;;;;;;;;;;6217615;28;20054;-83
2023/06/14 01:24:32;;;;;;;41.25;23.02;;;;;;;;;;6218715;28;20057;-82
2023/06/14 01:27:37;;;;;;;37.00;22.05;;;;;;;;;;6218628;28;20053;-81
2023/06/14 01:30:44;;;;;;;36.45;21.08;;;;;;;;;;6215227;28;20312;-82
2023/06/14 01:33:47;;;;;;;27.35;19.15;;;;;;;;;;6217180;28;20114;-82
2023/06/14 01:36:48;;;;;;;27.23;17.38;;;;;;;;;;6218398;28;20273;-81
2023/06/14 01:39:51;;;;;;;22.25;15.40;;;;;;;;;;6219460;28;20111;-82
2023/06/14 01:42:53;;;;;;;21.80;14.73;;;;;;;;;;6217585;28;20050;-82
2023/06/14 01:45:56;;;;;;;20.42;13.95;;;;;;;;;;6217927;28;20058;-82
2023/06/14 01:48:57;;;;;;;19.98;13.25;;;;;;;;;;6214606;28;20273;-81
2023/06/14 01:51:59;;;;;;;17.35;12.50;;;;;;;;;;6216441;28;20038;-81
2023/06/14 01:55:03;;;;;;;14.70;10.98;;;;;;;;;;6217576;28;20050;-81
2023/06/14 01:58:05;;;;;;;14.18;10.45;;;;;;;;;;6216203;28;20277;-81
2023/06/14 02:01:08;;;;;;;12.85;9.57;;;;;;;;;;6217658;28;20399;-81
2023/06/14 02:04:10;;;;;;;12.38;10.00;;;;;;;;;;6215698;28;20062;-81
2023/06/14 02:07:11;;;;;;;11.95;10.00;;;;;;;;;;6215464;28;20053;-84
2023/06/14 02:10:15;;;;;;;12.13;9.48;;;;;;;;;;6213504;28;20056;-81
2023/06/14 02:13:17;;;;;;;11.73;9.45;;;;;;;;;;6218802;28;20297;-81
2023/06/14 02:16:18;;;;;;;11.52;9.00;;;;;;;;;;6218002;28;20048;-81
2023/06/14 02:19:21;;;;;;;12.05;8.23;;;;;;;;;;6219432;28;20341;-82
2023/06/14 02:22:23;;;;;;;8.43;7.47;;;;;;;;;;6218221;28;20050;-81
2023/06/14 02:25:27;;;;;;;7.88;7.07;;;;;;;;;;6215772;28;20060;-82
2023/06/14 02:28:29;;;;;;;8.00;6.70;;;;;;;;;;6217149;28;20072;-82
2023/06/14 02:31:31;;;;;;;8.88;6.70;;;;;;;;;;6217072;28;20120;-81
2023/06/14 02:34:32;;;;;;;7.47;6.25;;;;;;;;;;6212816;28;20274;-81
2023/06/14 02:37:35;;;;;;;8.43;5.80;;;;;;;;;;6217866;28;20050;-82
2023/06/14 02:40:38;;;;;;;7.20;6.00;;;;;;;;;;6218149;28;20054;-81
2023/06/14 02:43:39;;;;;;;7.40;6.30;;;;;;;;;;6213743;28;20813;-81
2023/06/14 02:46:43;;;;;;;8.23;6.10;;;;;;;;;;6216951;28;20053;-81
2023/06/14 02:49:46;;;;;;;7.25;5.95;;;;;;;;;;6217143;28;20060;-80
2023/06/14 02:52:48;;;;;;;8.37;5.13;;;;;;;;;;6215961;28;20117;-81
2023/06/14 02:55:52;;;;;;;8.43;5.55;;;;;;;;;;6214760;28;20116;-80
2023/06/14 02:58:54;;;;;;;7.13;5.38;;;;;;;;;;6214696;28;20046;-81
2023/06/14 03:01:55;;;;;;;7.45;5.47;;;;;;;;;;6216080;28;20056;-80
2023/06/14 03:05:01;;;;;;;7.28;5.60;;;;;;;;;;6213296;28;20293;-80
2023/06/14 03:08:03;;;;;;;7.38;5.65;;;;;;;;;;6212226;28;20080;-81
2023/06/14 03:11:06;;;;;;;9.73;5.60;;;;;;;;;;6215838;28;20049;-81
2023/06/14 03:14:08;;;;;;;6.32;5.15;;;;;;;;;;6215567;28;20140;-81
2023/06/14 03:17:10;;;;;;;6.72;5.70;;;;;;;;;;6211813;28;20050;-81
2023/06/14 03:20:12;;;;;;;6.75;5.28;;;;;;;;;;6213914;28;20046;-81
2023/06/14 03:23:13;;;;;;;7.97;5.07;;;;;;;;;;6214182;28;20088;-81
2023/06/14 03:26:17;;;;;;;8.23;5.40;;;;;;;;;;6213344;28;20120;-81
2023/06/14 03:29:19;;;;;;;;;;;;;;;;;;6216043;28;20057;-80
2023/06/14 03:32:20;;;;;;;6.43;5.07;;;;;;;;;;6214287;28;19918;-80
2023/06/14 03:35:22;;;;;;;5.88;4.88;;;;;;;;;;6215701;28;20483;-80
2023/06/14 03:38:24;;;;;;;6.68;5.07;;;;;;;;;;6217481;28;20058;-80
2023/06/14 03:41:27;;;;;;;6.80;5.00;;;;;;;;;;6212898;28;20112;-80
2023/06/14 03:44:28;;;;;;;7.25;5.25;;;;;;;;;;6202534;28;20293;-80
2023/06/14 03:47:30;;;;;;;6.85;4.95;;;;;;;;;;6217359;28;20061;-80
2023/06/14 03:50:32;;;;;;;6.55;5.30;;;;;;;;;;6220170;28;20346;-80
2023/06/14 03:53:35;;;;;;;5.78;4.80;;;;;;;;;;6217495;28;20157;-81
2023/06/14 03:56:38;;;;;;;5.88;4.47;;;;;;;;;;6218599;28;20073;-81
2023/06/14 03:59:41;;;;;;;6.25;4.40;;;;;;;;;;6221462;28;20049;-80
2023/06/14 04:02:43;;;;;;;5.97;4.82;;;;;;;;;;6204276;28;20364;-79
2023/06/14 04:05:49;;;;;;;5.00;4.25;;;;;;;;;;6220909;28;20201;-81
2023/06/14 04:08:50;;;;;;;6.05;4.68;;;;;;;;;;6219392;28;20080;-80
2023/06/14 04:11:53;;;;;;;5.93;4.35;;;;;;;;;;6221937;28;20234;-79
2023/06/14 04:14:55;;;;;;;5.65;4.32;;;;;;;;;;6215536;28;20104;-81
2023/06/14 04:17:58;;;;;;;4.70;4.15;;;;;;;;;;6217726;28;20054;-80
2023/06/14 04:21:00;;;;;;;6.22;4.85;;;;;;;;;;6216585;28;20054;-81
2023/06/14 04:24:02;;;;;;;4.72;3.72;;;;;;;;;;6217734;28;20107;-80
2023/06/14 04:27:06;;;;;;;6.25;3.90;;;;;;;;;;6216809;28;20091;-80
2023/06/14 04:30:09;;;;;;;4.28;3.80;;;;;;;;;;6219257;28;20143;-80
2023/06/14 04:33:11;;;;;;;4.10;3.65;;;;;;;;;;6217973;28;20137;-81
2023/06/14 04:36:13;;;;;;;4.57;3.35;;;;;;;;;;6221027;28;20058;-81
2023/06/14 04:39:14;;;;;;;5.10;3.92;;;;;;;;;;6218103;28;20042;-81
2023/06/14 04:42:20;;;;;;;4.50;3.38;;;;;;;;;;6217038;28;20056;-80
2023/06/14 04:45:23;;;;;;;4.95;3.60;;;;;;;;;;6218428;28;20466;-80
2023/06/14 04:48:25;;;;;;;6.25;4.00;;;;;;;;;;6218188;28;20270;-80
2023/06/14 04:51:29;;;;;;;3.92;3.35;;;;;;;;;;6219278;28;20057;-79
2023/06/14 04:54:33;;;;;;;4.57;3.72;;;;;;;;;;6216665;28;20152;-79
2023/06/14 04:57:38;;;;;;;7.60;3.72;;;;;;;;;;6214778;28;20049;-80
2023/06/14 05:00:41;;;;;;;5.07;3.83;;;;;;;;;;6216675;28;20061;-82
2023/06/14 05:03:45;;;;;;;5.10;3.63;;;;;;;;;;6206370;28;20482;-82
2023/06/14 05:06:47;;;;;;;;;;;;;;;;;;6217318;28;20238;-80
2023/06/14 05:09:49;;;;;;;4.57;3.60;;;;;;;;;;6216066;28;19921;-81
2023/06/14 05:12:52;;;;;;;6.45;3.75;;;;;;;;;;6219544;28;20056;-81
2023/06/14 05:15:54;;;;;;;5.18;3.63;;;;;;;;;;6215809;28;20049;-80
2023/06/14 05:18:56;;;;;;;5.00;3.92;;;;;;;;;;6216552;28;20238;-81
2023/06/14 05:22:02;;;;;;;4.07;3.67;;;;;;;;;;6217699;28;20057;-81
2023/06/14 05:25:05;;;;;;;7.28;3.85;;;;;;;;;;6215853;28;20069;-77
2023/06/14 05:28:08;;;;;;;4.35;3.75;;;;;;;;;;6216843;28;20084;-76
2023/06/14 05:31:09;;;;;;;5.57;4.25;;;;;;;;;;6216947;28;20065;-78
2023/06/14 05:34:11;;;;;;;4.13;3.40;;;;;;;;;;6218260;28;20049;-78
2023/06/14 05:37:13;;;;;;;3.88;3.30;;;;;;;;;;6222188;28;20054;-76
2023/06/14 05:40:16;;;;;;;5.40;3.45;;;;;;;;;;6215535;28;20054;-78
2023/06/14 05:43:19;;;;;;;;;;;;;;;;;;6217834;28;20054;-76
2023/06/14 05:46:24;;;;;;;3.50;3.00;;;;;;;;;;6215337;28;19921;-76
2023/06/14 05:49:25;;;;;;;5.22;3.55;;;;;;;;;;6216717;28;20113;-76
2023/06/14 05:52:27;;;;;;;4.15;3.47;;;;;;;;;;6219102;28;20062;-76
2023/06/14 05:55:29;;;;;;;5.32;3.45;;;;;;;;;;6214985;28;20049;-78
2023/06/14 05:58:32;;;;;;;4.88;3.20;;;;;;;;;;6216625;28;20125;-77
2023/06/14 06:01:36;;;;;;;5.20;3.72;;;;;;;;;;6215377;28;20282;-78
2023/06/14 06:04:38;;;;;;;5.30;3.80;;;;;;;;;;6216684;28;20048;-76
2023/06/14 06:07:40;;;;;;;5.15;3.33;;;;;;;;;;6214652;28;20050;-76
2023/06/14 06:10:42;;;;;;;6.03;3.78;;;;;;;;;;6215810;28;20138;-76
2023/06/14 06:13:45;;;;;;;5.05;3.60;;;;;;;;;;6215319;28;20060;-76
2023/06/14 06:16:47;;;;;;;5.53;4.00;;;;;;;;;;6213209;28;20063;-75
2023/06/14 06:19:49;;;;;;;6.40;3.95;;;;;;;;;;6215766;28;20158;-75
2023/06/14 06:22:50;;;;;;;5.55;4.40;;;;;;;;;;6217225;28;20054;-75
2023/06/14 06:25:53;;;;;;;6.05;3.92;;;;;;;;;;6216188;28;20139;-75
2023/06/14 06:28:57;;;;;;;4.63;3.67;;;;;;;;;;6214702;28;20305;-75
2023/06/14 06:31:58;;;;;;;8.77;4.20;;;;;;;;;;6216496;28;20050;-74
2023/06/14 06:35:00;;;;;;;6.22;3.70;;;;;;;;;;6213972;28;20317;-75
2023/06/14 06:38:02;;;;;;;6.28;3.95;;;;;;;;;;6215289;28;20282;-75
2023/06/14 06:41:04;;;;;;;7.57;4.45;;;;;;;;;;6215634;28;20387;-76
2023/06/14 06:44:07;;;;;;;7.60;4.07;;;;;;;;;;6215399;28;20054;-75
2023/06/14 06:47:09;;;;;;;7.97;3.90;;;;;;;;;;6216273;28;20054;-76
2023/06/14 06:50:11;;;;;;;13.45;4.70;;;;;;;;;;6216541;28;20061;-75
2023/06/14 06:53:13;;;;;;;5.97;3.78;;;;;;;;;;6214492;28;20046;-76
2023/06/14 06:56:14;;;;;;;8.02;3.80;;;;;;;;;;6215070;28;20052;-74
2023/06/14 06:59:17;;;;;;;8.00;4.03;;;;;;;;;;6215835;28;20046;-76
2023/06/14 07:02:19;;;;;;;6.70;4.55;;;;;;;;;;6214476;28;20223;-76
2023/06/14 07:05:21;;;;;;;7.18;4.13;;;;;;;;;;6213320;28;20100;-75
2023/06/14 07:08:23;;;;;;;7.65;4.55;;;;;;;;;;6213633;28;20345;-76
2023/06/14 07:11:24;;;;;;;9.30;4.68;;;;;;;;;;6216756;28;20120;-75
2023/06/14 07:14:30;;;;;;;8.77;5.20;;;;;;;;;;6214234;28;20061;-76
2023/06/14 07:17:31;;;;;;;11.68;5.18;;;;;;;;;;6212585;28;20054;-75
2023/06/14 07:20:33;;;;;;;12.55;5.65;;;;;;;;;;6215757;28;20058;-75
2023/06/14 07:23:35;;;;;;;16.85;6.18;;;;;;;;;;6214295;28;20050;-77
2023/06/14 07:26:37;;;;;;;12.15;5.47;;;;;;;;;;6214657;28;20094;-76
2023/06/14 07:29:40;;;;;;;10.50;5.40;;;;;;;;;;6213190;28;20050;-76
2023/06/14 07:32:41;;;;;;;8.23;5.45;;;;;;;;;;6215839;28;20112;-78
2023/06/14 07:35:43;;;;;;;8.70;5.82;;;;;;;;;;6213684;28;20042;-75
2023/06/14 07:38:45;;;;;;;9.57;5.35;;;;;;;;;;6215108;28;20081;-76
2023/06/14 07:41:47;;;;;;;13.95;6.15;;;;;;;;;;6214986;28;20042;-75
2023/06/14 07:44:52;;;;;;;9.40;5.07;;;;;;;;;;6214058;28;20061;-76
2023/06/14 07:47:53;;;;;;;9.32;5.93;;;;;;;;;;6214878;28;20085;-75
2023/06/14 07:50:58;;;;;;;8.95;5.47;;;;;;;;;;6212226;28;20187;-75
2023/06/14 07:54:00;;;;;;;10.82;6.10;;;;;;;;;;6213089;28;20066;-75
2023/06/14 07:57:02;;;;;;;5.97;5.15;;;;;;;;;;6214087;28;20057;-76
2023/06/14 08:00:07;;;;;;;8.93;5.70;;;;;;;;;;6216632;28;20088;-75
2023/06/14 08:03:09;;;;;;;8.98;5.55;;;;;;;;;;6217316;28;20119;-76
2023/06/14 08:06:11;;;;;;;9.85;5.93;;;;;;;;;;6213125;28;20250;-75
2023/06/14 08:09:13;;;;;;;10.27;6.53;;;;;;;;;;6210981;28;20241;-77
2023/06/14 08:12:15;;;;;;;7.88;5.30;;;;;;;;;;6217419;28;20392;-76
2023/06/14 08:15:18;;;;;;;10.63;5.40;;;;;;;;;;6212585;28;20270;-75
2023/06/14 08:18:20;;;;;;;;;;;;;;;;;;6211823;28;20335;-76
2023/06/14 08:21:22;;;;;;;7.78;5.10;;;;;;;;;;6216264;28;20152;-75
2023/06/14 08:24:24;;;;;;;10.45;5.97;;;;;;;;;;6214194;28;20046;-76
2023/06/14 08:27:26;;;;;;;9.20;5.80;;;;;;;;;;6214978;28;20038;-75
2023/06/14 08:30:29;;;;;;;9.95;5.45;;;;;;;;;;6221789;28;20069;-75
2023/06/14 08:33:33;;;;;;;8.75;5.80;;;;;;;;;;6219671;28;20042;-75
2023/06/14 08:36:36;;;;;;;9.25;6.05;;;;;;;;;;6221848;28;20389;-76
2023/06/14 08:39:38;;;;;;;8.48;5.47;;;;;;;;;;6217697;28;20065;-75
2023/06/14 08:42:41;;;;;;;6.75;5.38;;;;;;;;;;6216813;28;20892;-76
2023/06/14 08:45:45;;;;;;;10.75;5.43;;;;;;;;;;6216164;28;20049;-77
2023/06/14 08:48:48;;;;;;;8.77;6.28;;;;;;;;;;6214943;28;20061;-77
2023/06/14 08:51:51;;;;;;;7.90;6.22;;;;;;;;;;6218196;28;20062;-75
2023/06/14 08:54:53;;;;;;;7.32;6.10;;;;;;;;;;6218391;28;20604;-76
2023/06/14 08:57:57;;;;;;;8.90;5.60;;;;;;;;;;6218211;28;20108;-76
2023/06/14 09:01:00;;;;;;;9.57;6.40;;;;;;;;;;6218263;28;20109;-78
2023/06/14 09:04:05;;;;;;;9.43;6.38;;;;;;;;;;6216683;28;20077;-76
2023/06/14 09:07:07;;;;;;;11.18;6.10;;;;;;;;;;6218113;28;20131;-77
2023/06/14 09:10:10;;;;;;;8.77;6.68;;;;;;;;;;6219683;28;20042;-76
2023/06/14 09:13:12;;;;;;;8.52;6.80;;;;;;;;;;6215601;28;20085;-76
2023/06/14 09:16:16;;;;;;;9.50;6.60;;;;;;;;;;6217810;28;20392;-75
2023/06/14 09:19:22;;;;;;;10.52;7.15;;;;;;;;;;6215052;28;20058;-76
2023/06/14 09:22:24;;;;;;;10.18;6.55;;;;;;;;;;6216777;28;20450;-76
2023/06/14 09:25:27;;;;;;;7.93;6.20;;;;;;;;;;6214372;28;20079;-77
2023/06/14 09:28:28;;;;;;;10.32;7.60;;;;;;;;;;6216005;28;20093;-76
2023/06/14 09:31:32;;;;;;;11.90;6.95;;;;;;;;;;6216579;28;20345;-76
2023/06/14 09:34:34;;;;;;;13.65;7.47;;;;;;;;;;6218918;28;20057;-75
2023/06/14 09:37:37;;;;;;;7.53;6.20;;;;;;;;;;6216183;28;20057;-76
2023/06/14 09:40:39;;;;;;;6.82;5.65;;;;;;;;;;6220310;28;20346;-76
2023/06/14 09:43:40;;;;;;;6.97;5.53;;;;;;;;;;6218808;28;20054;-76
2023/06/14 09:46:43;;;;;;;7.38;5.80;;;;;;;;;;6215719;28;20047;-76
2023/06/14 09:49:45;;;;;;;10.77;6.68;;;;;;;;;;6218662;28;20046;-77
2023/06/14 09:52:48;;;;;;;8.27;6.05;;;;;;;;;;6215303;28;20348;-77
2023/06/14 09:55:50;;;;;;;8.13;5.88;;;;;;;;;;6215408;28;20054;-76
2023/06/14 09:58:55;;;;;;;6.88;5.75;;;;;;;;;;6199143;28;20252;-76
2023/06/14 10:02:00;;;;;;;10.63;5.88;;;;;;;;;;6217106;28;20241;-76
2023/06/14 10:05:06;;;;;;;7.82;5.60;;;;;;;;;;6217485;28;20089;-77
2023/06/14 10:08:10;;;;;;;9.45;6.70;;;;;;;;;;6215473;28;20108;-76
2023/06/14 10:11:13;;;;;;;10.25;7.40;;;;;;;;;;6218173;28;20246;-76
2023/06/14 10:14:15;;;;;;;7.70;6.40;;;;;;;;;;6216831;28;20100;-78
2023/06/14 10:17:25;;;;;;;10.15;7.18;;;;;;;;;;6214928;28;20065;-77
2023/06/14 10:20:32;;;;;;;7.45;6.40;;;;;;;;;;6220335;28;20349;-76
2023/06/14 10:23:36;;;;;;;11.60;6.78;;;;;;;;;;6215002;28;20050;-76
2023/06/14 10:26:51;;;;;;;8.07;7.28;;;;;;;;;;6200818;28;20349;-76
2023/06/14 10:30:08;;;;;;;7.63;6.78;;;;;;;;;;6214906;28;20054;-76
2023/06/14 10:33:11;;;;;;;10.00;7.80;;;;;;;;;;6214355;28;20120;-77
2023/06/14 10:36:30;;;;;;;8.48;7.53;;;;;;;;;;6216184;28;20116;-77
2023/06/14 10:39:32;;;;;;;8.93;5.80;;;;;;;;;;6213637;28;20110;-78
2023/06/14 10:42:34;;;;;;;9.63;6.40;;;;;;;;;;6215086;28;20211;-77
2023/06/14 10:45:36;;;;;;;8.32;6.35;;;;;;;;;;6216125;28;20046;-77
2023/06/14 10:48:44;;;;;;;9.40;6.65;;;;;;;;;;6215356;28;20160;-77
2023/06/14 10:51:47;;;;;;;9.20;6.68;;;;;;;;;;6216235;28;20234;-76
2023/06/14 10:55:09;;;;;;;9.77;7.45;;;;;;;;;;6215856;28;20050;-76
2023/06/14 10:58:10;;;;;;;11.50;7.10;;;;;;;;;;6215257;28;20052;-79
2023/06/14 11:01:13;;;;;;;36.20;23.92;;;;;;;;;;6220069;28;20428;-77
2023/06/14 11:04:18;;;;;;;11.13;8.75;;;;;;;;;;6216491;28;20049;-77
2023/06/14 11:07:38;;;;;;;20.40;16.05;;;;;;;;;;6215601;28;20053;-79
2023/06/14 11:10:40;;;;;;;19.50;12.43;;;;;;;;;;6217045;28;20049;-77
2023/06/14 11:13:46;;;;;;;202.68;156.27;;;;;;;;;;6216304;28;20119;-78
2023/06/14 11:16:49;;;;;;;18.77;16.23;;;;;;;;;;6214803;28;20294;-76
2023/06/14 11:20:08;;;;;;;81.43;58.65;;;;;;;;;;6218939;28;20083;-78
2023/06/14 11:23:10;;;;;;;8.80;6.75;;;;;;;;;;6214119;28;20057;-80
2023/06/14 11:26:13;;;;;;;6.80;5.97;;;;;;;;;;6215751;28;20054;-80
2023/06/14 11:29:16;;;;;;;9.57;6.65;;;;;;;;;;6214682;28;20695;-80
2023/06/14 11:32:18;;;;;;;7.15;6.13;;;;;;;;;;6215232;28;20650;-81
2023/06/14 11:35:24;;;;;;;6.85;5.50;;;;;;;;;;6213718;28;20154;-81
2023/06/14 11:38:26;;;;;;;8.77;5.63;;;;;;;;;;6215347;28;20255;-82
2023/06/14 11:41:34;;;;;;;7.05;6.07;;;;;;;;;;6215091;28;20330;-81
2023/06/14 11:44:36;;;;;;;5.50;5.00;;;;;;;;;;6214296;28;20314;-82
2023/06/14 11:47:40;;;;;;;5.03;4.47;;;;;;;;;;6214036;28;20265;-77
2023/06/14 11:50:43;;;;;;;7.18;5.38;;;;;;;;;;6216775;28;20054;-78
2023/06/14 11:53:44;;;;;;;7.32;4.57;;;;;;;;;;6214786;28;20045;-75
2023/06/14 11:56:46;;;;;;;6.25;5.40;;;;;;;;;;6214250;28;20073;-76
2023/06/14 11:59:48;;;;;;;5.00;4.50;;;;;;;;;;6217974;28;20346;-76
2023/06/14 12:02:56;;;;;;;6.50;5.32;;;;;;;;;;6217453;28;20499;-76
2023/06/14 12:06:08;;;;;;;5.60;4.38;;;;;;;;;;6219007;28;20116;-77
2023/06/14 12:09:13;;;;;;;6.35;5.43;;;;;;;;;;6217057;28;20076;-78
2023/06/14 12:12:15;;;;;;;6.65;5.07;;;;;;;;;;6223106;28;20219;-77
2023/06/14 12:15:17;;;;;;;6.50;5.72;;;;;;;;;;6218500;28;20054;-77
2023/06/14 12:18:19;;;;;;;6.35;5.60;;;;;;;;;;6216058;28;20045;-76
2023/06/14 12:21:23;;;;;;;6.72;5.35;;;;;;;;;;6221231;28;20237;-78
2023/06/14 12:24:29;;;;;;;5.72;4.30;;;;;;;;;;6218122;28;20415;-77
2023/06/14 12:27:30;;;;;;;5.60;5.10;;;;;;;;;;6218360;28;20046;-77
2023/06/14 12:30:32;;;;;;;7.90;5.03;;;;;;;;;;6218369;28;20093;-76
2023/06/14 12:33:34;;;;;;;7.23;4.60;;;;;;;;;;6217804;28;20065;-78
2023/06/14 12:36:41;;;;;;;7.43;5.30;;;;;;;;;;6220525;28;20481;-77
2023/06/14 12:39:43;;;;;;;6.65;5.38;;;;;;;;;;6219273;28;20054;-78
2023/06/14 12:42:47;;;;;;;5.35;4.05;;;;;;;;;;6220741;28;20341;-76
2023/06/14 12:45:48;;;;;;;5.03;3.55;;;;;;;;;;6219394;28;20050;-77
2023/06/14 12:48:51;;;;;;;5.57;4.30;;;;;;;;;;6218089;28;20053;-77
2023/06/14 12:51:54;;;;;;;4.20;3.42;;;;;;;;;;6219208;28;20054;-77
2023/06/14 12:54:56;;;;;;;4.95;3.58;;;;;;;;;;6219398;28;20112;-76
2023/06/14 12:57:57;;;;;;;4.00;3.58;;;;;;;;;;6217111;28;20050;-77
2023/06/14 13:00:59;;;;;;;7.07;3.80;;;;;;;;;;6217000;28;20294;-76
2023/06/14 13:04:00;;;;;;;6.65;4.10;;;;;;;;;;6216629;28;20057;-76
2023/06/14 13:07:04;;;;;;;37.38;33.58;;;;;;;;;;6219542;28;20050;-77
2023/06/14 13:10:06;;;;;;;19.00;17.02;;;;;;;;;;6215189;28;20065;-77
2023/06/14 13:13:08;;;;;;;21.33;17.23;;;;;;;;;;6214755;28;20041;-76
2023/06/14 13:16:10;;;;;;;4.28;3.75;;;;;;;;;;6216471;28;20317;-76
2023/06/14 13:19:12;;;;;;;4.00;3.25;;;;;;;;;;6215731;28;20050;-76
2023/06/14 13:22:18;;;;;;;4.07;2.88;;;;;;;;;;6218799;28;20046;-76
2023/06/14 13:25:20;;;;;;;4.00;2.88;;;;;;;;;;6215371;28;20242;-76
2023/06/14 13:28:22;;;;;;;3.92;3.05;;;;;;;;;;6220126;28;20056;-77
2023/06/14 13:31:24;;;;;;;3.40;2.70;;;;;;;;;;6219990;28;20058;-76
2023/06/14 13:34:25;;;;;;;2.90;2.67;;;;;;;;;;6214940;28;20133;-76
2023/06/14 13:37:29;;;;;;;3.50;3.20;;;;;;;;;;6216336;28;20062;-75
2023/06/14 13:40:31;;;;;;;2.95;2.60;;;;;;;;;;6217350;28;20050;-76
2023/06/14 13:43:33;;;;;;;3.30;3.00;;;;;;;;;;6217155;28;20093;-75
2023/06/14 13:46:34;;;;;;;5.15;3.90;;;;;;;;;;6213481;28;20334;-76
2023/06/14 13:49:36;;;;;;;3.90;3.50;;;;;;;;;;6216267;28;20388;-77
2023/06/14 13:52:40;;;;;;;6.05;3.83;;;;;;;;;;6215184;28;20121;-76
2023/06/14 13:55:44;;;;;;;4.20;3.80;;;;;;;;;;6212632;28;20060;-76
2023/06/14 13:58:45;;;;;;;4.55;3.40;;;;;;;;;;6214208;28;20109;-76
2023/06/14 14:01:51;;;;;;;6.88;4.47;;;;;;;;;;6216421;28;20057;-77
2023/06/14 14:04:53;;;;;;;4.43;3.50;;;;;;;;;;6216355;28;20060;-75
2023/06/14 14:07:57;;;;;;;4.50;3.90;;;;;;;;;;6216105;28;20073;-77
2023/06/14 14:11:00;;;;;;;4.10;3.45;;;;;;;;;;6216477;28;20061;-75
2023/06/14 14:14:02;;;;;;;3.58;3.28;;;;;;;;;;6215760;28;20124;-75
2023/06/14 14:17:04;;;;;;;4.88;3.47;;;;;;;;;;6216033;28;20061;-75
2023/06/14 14:20:07;;;;;;;4.63;2.95;;;;;;;;;;6218848;28;20068;-75
2023/06/14 14:23:10;;;;;;;4.00;3.38;;;;;;;;;;6218993;28;20215;-76
2023/06/14 14:26:12;;;;;;;9.13;4.10;;;;;;;;;;6214982;28;20058;-76
2023/06/14 14:29:13;;;;;;;5.22;3.53;;;;;;;;;;6215268;28;20050;-74
2023/06/14 14:32:15;;;;;;;8.37;4.23;;;;;;;;;;6219171;28;20053;-75
2023/06/14 14:35:17;;;;;;;6.17;3.47;;;;;;;;;;6213442;28;20329;-76
2023/06/14 14:38:21;;;;;;;;;;;;;;;;;;6220113;28;20488;-75
2023/06/14 14:41:23;;;;;;;6.40;3.33;;;;;;;;;;6217233;28;19933;-75
2023/06/14 14:44:24;;;;;;;4.10;3.70;;;;;;;;;;6215166;28;20281;-75
2023/06/14 14:47:26;;;;;;;5.22;3.33;;;;;;;;;;6215271;28;20042;-75
2023/06/14 14:50:28;;;;;;;4.00;3.40;;;;;;;;;;6210410;28;20060;-75
2023/06/14 14:53:31;;;;;;;4.57;3.23;;;;;;;;;;6210728;28;20057;-75
2023/06/14 14:56:35;;;;;;;3.63;3.28;;;;;;;;;;6212830;28;20057;-76
2023/06/14 14:59:37;;;;;;;5.28;2.95;;;;;;;;;;6213363;28;20058;-75
2023/06/14 15:02:38;;;;;;;4.07;3.28;;;;;;;;;;6215897;28;20506;-75
2023/06/14 15:05:40;;;;;;;4.28;3.10;;;;;;;;;;6214685;28;20351;-75
2023/06/14 15:08:43;;;;;;;4.37;3.43;;;;;;;;;;6214559;28;20057;-75
2023/06/14 15:11:46;;;;;;;5.75;3.90;;;;;;;;;;6212971;28;20073;-75
2023/06/14 15:14:48;;;;;;;4.97;3.38;;;;;;;;;;6214762;28;20073;-75
2023/06/14 15:17:49;;;;;;;6.30;3.35;;;;;;;;;;6215637;28;20050;-76
2023/06/14 15:20:52;;;;;;;4.57;3.47;;;;;;;;;;6215013;28;20049;-76
2023/06/14 15:23:58;;;;;;;4.53;3.20;;;;;;;;;;6213457;28;20298;-75
2023/06/14 15:26:59;;;;;;;4.70;3.83;;;;;;;;;;6213353;28;20057;-75
2023/06/14 15:30:01;;;;;;;5.25;4.47;;;;;;;;;;6215364;28;20065;-75
2023/06/14 15:33:03;;;;;;;5.18;4.13;;;;;;;;;;6215395;28;20058;-75
2023/06/14 15:36:09;;;;;;;6.72;4.18;;;;;;;;;;6214410;28;20074;-76
2023/06/14 15:39:12;;;;;;;4.40;3.53;;;;;;;;;;6217988;28;20045;-75
2023/06/14 15:42:14;;;;;;;7.72;5.70;;;;;;;;;;6221452;28;20344;-75
2023/06/14 15:45:16;;;;;;;9.95;8.05;;;;;;;;;;6218362;28;20054;-75
2023/06/14 15:48:17;;;;;;;8.00;7.20;;;;;;;;;;6219554;28;20601;-75
2023/06/14 15:51:19;;;;;;;6.80;4.60;;;;;;;;;;6219847;28;20068;-75
2023/06/14 15:54:23;;;;;;;7.72;5.00;;;;;;;;;;6220212;28;20105;-75
2023/06/14 15:57:27;;;;;;;8.65;6.00;;;;;;;;;;6218829;28;20057;-75
2023/06/14 16:00:28;;;;;;;7.15;5.60;;;;;;;;;;6221047;28;20046;-75
2023/06/14 16:03:30;;;;;;;5.95;4.68;;;;;;;;;;6219660;28;20058;-76
2023/06/14 16:06:32;;;;;;;9.10;4.70;;;;;;;;;;6218929;28;20657;-75
2023/06/14 16:09:35;;;;;;;5.20;4.70;;;;;;;;;;6216744;28;20350;-75
2023/06/14 16:12:36;;;;;;;;;;;;;;;;;;6219832;28;20076;-76
2023/06/14 16:15:38;;;;;;;7.72;5.57;;;;;;;;;;6213593;28;19925;-76
2023/06/14 16:18:41;;;;;;;6.47;5.40;;;;;;;;;;6217386;28;20104;-75
2023/06/14 16:21:42;;;;;;;7.88;5.95;;;;;;;;;;6218921;28;20064;-75
2023/06/14 16:24:45;;;;;;;5.53;4.57;;;;;;;;;;6216517;28;20053;-75
2023/06/14 16:27:47;;;;;;;;;;;;;;;;;;6217986;28;20385;-76
2023/06/14 16:30:48;;;;;;;5.28;4.10;;;;;;;;;;6216933;28;19961;-77
2023/06/14 16:33:55;;;;;;;5.25;4.28;;;;;;;;;;6215298;28;20484;-76
2023/06/14 16:36:57;;;;;;;6.78;5.85;;;;;;;;;;6208032;28;20060;-78
2023/06/14 16:40:00;;;;;;;5.78;5.18;;;;;;;;;;6214822;28;20072;-76
2023/06/14 16:43:02;;;;;;;7.07;5.70;;;;;;;;;;6216460;28;20698;-78
2023/06/14 16:46:04;;;;;;;5.85;5.25;;;;;;;;;;6216842;28;21289;-75
2023/06/14 16:49:05;;;;;;;8.23;6.43;;;;;;;;;;6218578;28;20058;-74
2023/06/14 16:52:08;;;;;;;7.07;5.35;;;;;;;;;;6214735;28;20342;-75
2023/06/14 16:55:15;;;;;;;;;;;;;;;;;;6215861;28;20061;-77
2023/06/14 16:58:17;;;;;;;8.10;5.25;;;;;;;;;;6216806;28;19924;-76
2023/06/14 17:01:21;;;;;;;7.05;5.50;;;;;;;;;;6217939;28;20341;-75
2023/06/14 17:04:24;;;;;;;7.55;6.80;;;;;;;;;;6220301;28;20106;-76
2023/06/14 17:07:26;;;;;;;7.93;6.13;;;;;;;;;;6215430;28;20064;-76
2023/06/14 17:10:29;;;;;;;9.00;6.30;;;;;;;;;;6216232;28;20057;-76
2023/06/14 17:13:34;;;;;;;7.68;5.60;;;;;;;;;;6213034;28;20227;-78
2023/06/14 17:16:36;;;;;;;10.20;6.00;;;;;;;;;;6218052;28;20081;-75
2023/06/14 17:19:38;;;;;;;7.32;6.00;;;;;;;;;;6216073;28;20046;-76
2023/06/14 17:22:40;;;;;;;6.95;5.70;;;;;;;;;;6220707;28;20076;-75
2023/06/14 17:25:44;;;;;;;7.45;6.20;;;;;;;;;;6218070;28;20065;-75
2023/06/14 17:28:45;;;;;;;8.00;5.68;;;;;;;;;;6219112;28;20111;-76
2023/06/14 17:31:47;;;;;;;6.43;5.40;;;;;;;;;;6215526;28;20198;-75
2023/06/14 17:34:49;;;;;;;6.05;5.10;;;;;;;;;;6215994;28;20049;-76
2023/06/14 17:37:51;;;;;;;7.40;5.63;;;;;;;;;;6219301;28;20234;-75
2023/06/14 17:41:00;;;;;;;7.22;5.05;;;;;;;;;;6217426;28;20062;-76
2023/06/14 17:44:02;;;;;;;4.57;4.03;;;;;;;;;;6216639;28;20069;-76
2023/06/14 17:47:05;;;;;;;5.43;4.15;;;;;;;;;;6215672;28;20054;-76
2023/06/14 17:50:08;;;;;;;6.65;4.90;;;;;;;;;;6212928;28;20062;-77
2023/06/14 17:53:10;;;;;;;7.13;5.22;;;;;;;;;;6214377;28;20069;-77
2023/06/14 17:56:14;;;;;;;6.80;4.88;;;;;;;;;;6215183;28;20238;-75
2023/06/14 17:59:16;;;;;;;5.82;4.35;;;;;;;;;;6213402;28;20057;-76
2023/06/14 18:02:20;;;;;;;5.25;3.90;;;;;;;;;;6215651;28;20054;-75
2023/06/14 18:05:22;;;;;;;3.97;3.50;;;;;;;;;;6215250;28;20918;-75
2023/06/14 18:08:35;;;;;;;6.40;3.60;;;;;;;;;;6216178;28;20057;-75
2023/06/14 18:11:40;;;;;;;4.72;3.53;;;;;;;;;;6215893;28;20050;-76
2023/06/14 18:14:42;;;;;;;8.32;5.07;;;;;;;;;;6217944;28;20050;-75